createdAt,value
2023-04-08T00:02:02.684Z,7.80
2023-04-08T00:04:49.131Z,7.03
2023-04-08T00:07:36.096Z,6.97
2023-04-08T00:10:25.001Z,7.70
2023-04-08T00:13:11.769Z,8.10
2023-04-08T00:15:58.561Z,7.17
2023-04-08T00:18:45.249Z,7.57
2023-04-08T00:21:31.847Z,6.20
2023-04-08T00:24:18.315Z,6.70
2023-04-08T00:27:06.511Z,8.73
2023-04-08T00:29:53.147Z,5.90
2023-04-08T00:32:39.744Z,7.70
2023-04-08T00:35:26.700Z,6.60
2023-04-08T00:38:13.422Z,6.80
2023-04-08T00:40:59.965Z,5.67
2023-04-08T00:43:49.026Z,6.17
2023-04-08T00:46:39.561Z,7.23
2023-04-08T00:49:31.699Z,6.27
2023-04-08T00:52:18.560Z,6.80
2023-04-08T00:55:06.160Z,7.07
2023-04-08T00:57:52.747Z,6.17
2023-04-08T01:00:44.787Z,6.70
2023-04-08T01:03:40.481Z,7.47
2023-04-08T01:06:33.406Z,8.13
2023-04-08T01:09:22.248Z,6.23
2023-04-08T01:12:13.760Z,8.17
2023-04-08T01:15:04.324Z,7.30
2023-04-08T01:17:56.217Z,6.90
2023-04-08T01:20:48.478Z,6.53
2023-04-08T01:23:44.216Z,6.23
2023-04-08T01:26:32.538Z,6.53
2023-04-08T01:29:20.535Z,6.70
2023-04-08T01:32:08.540Z,6.80
2023-04-08T01:34:56.378Z,7.43
2023-04-08T01:37:44.274Z,6.83
2023-04-08T01:40:31.615Z,6.63
2023-04-08T01:43:20.787Z,7.80
2023-04-08T01:46:09.582Z,7.33
2023-04-08T01:48:56.820Z,6.10
2023-04-08T01:51:45.386Z,7.63
2023-04-08T01:54:32.332Z,7.47
2023-04-08T01:57:24.117Z,9.60
2023-04-08T02:00:14.657Z,7.73
2023-04-08T02:03:02.093Z,8.03
2023-04-08T02:05:48.811Z,7.93
2023-04-08T02:08:36.391Z,9.97
2023-04-08T02:11:23.176Z,8.53
2023-04-08T02:14:10.959Z,7.60
2023-04-08T02:17:09.885Z,9.70
2023-04-08T02:20:02.341Z,7.60
2023-04-08T02:22:54.089Z,7.57
2023-04-08T02:25:45.458Z,6.70
2023-04-08T02:28:34.632Z,7.57
2023-04-08T02:31:22.490Z,9.70
2023-04-08T02:34:12.194Z,8.80
2023-04-08T02:37:00.977Z,7.03
2023-04-08T02:39:47.740Z,10.73
2023-04-08T02:42:34.145Z,8.33
2023-04-08T02:45:21.259Z,7.23
2023-04-08T02:48:08.423Z,5.90
2023-04-08T02:50:57.201Z,5.93
2023-04-08T02:53:43.933Z,8.40
2023-04-08T02:56:30.657Z,6.47
2023-04-08T02:59:17.019Z,5.60
2023-04-08T03:02:03.427Z,6.97
2023-04-08T03:04:50.348Z,7.17
2023-04-08T03:07:38.428Z,8.57
2023-04-08T03:10:25.277Z,10.80
2023-04-08T03:13:11.922Z,8.93
2023-04-08T03:15:58.319Z,10.03
2023-04-08T03:18:44.731Z,8.67
2023-04-08T03:21:32.293Z,10.87
2023-04-08T03:24:20.174Z,11.30
2023-04-08T03:27:08.312Z,9.10
2023-04-08T03:29:55.030Z,9.90
2023-04-08T03:32:41.626Z,11.83
2023-04-08T03:35:28.426Z,11.37
2023-04-08T03:38:15.145Z,11.80
2023-04-08T03:41:03.344Z,12.27
2023-04-08T03:43:49.808Z,13.63
2023-04-08T03:46:36.248Z,10.70
2023-04-08T03:49:22.866Z,12.60
2023-04-08T03:52:09.332Z,21.40
2023-04-08T03:54:56.017Z,12.70
2023-04-08T03:57:45.458Z,13.13
2023-04-08T04:00:32.461Z,12.93
2023-04-08T04:03:19.752Z,15.93
2023-04-08T04:06:06.868Z,12.87
2023-04-08T04:08:55.347Z,12.13
2023-04-08T04:11:41.989Z,13.47
2023-04-08T04:14:29.926Z,13.13
2023-04-08T04:17:16.713Z,14.27
2023-04-08T04:20:05.433Z,13.03
2023-04-08T04:22:55.075Z,11.63
2023-04-08T04:25:42.810Z,14.77
2023-04-08T04:28:29.581Z,12.80
2023-04-08T04:31:26.372Z,12.63
2023-04-08T04:34:13.040Z,16.27
2023-04-08T04:36:59.444Z,12.03
2023-04-08T04:39:46.001Z,12.00
2023-04-08T04:42:33.018Z,12.03
2023-04-08T04:45:19.986Z,13.37
2023-04-08T04:48:08.134Z,11.37
2023-04-08T04:50:58.679Z,12.23
2023-04-08T04:53:45.341Z,10.40
2023-04-08T04:56:31.880Z,10.77
2023-04-08T04:59:18.420Z,14.80
2023-04-08T05:02:05.081Z,8.23
2023-04-08T05:04:55.731Z,8.47
2023-04-08T05:07:42.142Z,9.87
2023-04-08T05:10:28.537Z,10.87
2023-04-08T05:13:15.156Z,14.17
2023-04-08T05:16:01.967Z,7.97
2023-04-08T05:18:48.453Z,9.87
2023-04-08T05:21:36.664Z,11.70
2023-04-08T05:24:23.617Z,8.93
2023-04-08T05:27:11.164Z,9.60
2023-04-08T05:29:57.948Z,10.23
2023-04-08T05:32:44.344Z,9.33
2023-04-08T05:35:30.623Z,13.20
2023-04-08T05:38:18.536Z,10.23
2023-04-08T05:41:05.411Z,10.63
2023-04-08T05:43:51.695Z,11.70
2023-04-08T05:46:38.948Z,13.53
2023-04-08T05:49:25.836Z,9.00
2023-04-08T05:52:12.254Z,10.50
2023-04-08T05:54:59.852Z,10.43
2023-04-08T05:57:46.359Z,10.83
2023-04-08T06:00:32.895Z,12.03
2023-04-08T06:03:21.010Z,9.07
2023-04-08T06:06:12.302Z,9.80
2023-04-08T06:08:58.813Z,9.57
2023-04-08T06:11:47.201Z,11.10
2023-04-08T06:14:33.890Z,9.73
2023-04-08T06:17:20.177Z,12.47
2023-04-08T06:20:09.234Z,10.63
2023-04-08T06:22:55.989Z,8.77
2023-04-08T06:25:42.494Z,10.73
2023-04-08T06:28:31.799Z,11.40
2023-04-08T06:31:18.242Z,13.40
2023-04-08T06:34:04.542Z,11.73
2023-04-08T06:36:51.342Z,10.87
2023-04-08T06:39:38.106Z,12.90
2023-04-08T06:42:24.395Z,13.93
2023-04-08T06:45:12.783Z,11.03
2023-04-08T06:47:59.615Z,11.47
2023-04-08T06:50:46.339Z,10.13
2023-04-08T06:53:33.663Z,10.07
2023-04-08T06:56:21.376Z,11.13
2023-04-08T06:59:08.008Z,8.10
2023-04-08T07:01:55.814Z,10.00
2023-04-08T07:04:44.267Z,9.77
2023-04-08T07:07:32.409Z,9.00
2023-04-08T07:10:19.149Z,10.63
2023-04-08T07:13:05.584Z,9.73
2023-04-08T07:15:52.562Z,7.80
2023-04-08T07:18:41.415Z,7.67
2023-04-08T07:21:27.724Z,7.90
2023-04-08T07:24:14.182Z,7.10
2023-04-08T07:27:00.653Z,8.30
2023-04-08T07:29:53.241Z,7.73
2023-04-08T07:32:39.978Z,8.73
2023-04-08T07:35:27.813Z,8.47
2023-04-08T07:38:14.823Z,7.77
2023-04-08T07:41:01.623Z,9.40
2023-04-08T07:43:48.214Z,9.97
2023-04-08T07:46:38.555Z,8.80
2023-04-08T07:49:25.557Z,10.93
2023-04-08T07:52:13.191Z,11.47
2023-04-08T07:54:59.664Z,9.57
2023-04-08T07:57:46.078Z,10.27
2023-04-08T08:00:33.357Z,10.47
2023-04-08T08:03:20.330Z,14.00
2023-04-08T08:06:07.077Z,12.53
2023-04-08T08:08:55.127Z,13.40
2023-04-08T08:11:41.800Z,15.77
2023-04-08T08:14:28.929Z,13.93
2023-04-08T08:17:15.636Z,16.53
2023-04-08T08:20:02.278Z,15.60
2023-04-08T08:22:57.326Z,16.47
2023-04-08T08:25:45.447Z,18.07
2023-04-08T08:28:31.956Z,19.47
2023-04-08T08:31:18.221Z,21.97
2023-04-08T08:34:04.598Z,19.70
2023-04-08T08:36:51.261Z,22.23
2023-04-08T08:39:39.262Z,19.20
2023-04-08T08:42:27.510Z,24.10
2023-04-08T08:45:14.870Z,24.20
2023-04-08T08:48:01.482Z,26.37
2023-04-08T08:50:48.430Z,25.53
2023-04-08T08:53:35.993Z,26.00
2023-04-08T08:56:23.099Z,28.30
2023-04-08T08:59:10.803Z,30.73
2023-04-08T09:01:57.577Z,30.93
2023-04-08T09:04:58.585Z,29.90
2023-04-08T09:07:45.516Z,27.13
2023-04-08T09:10:32.173Z,30.10
2023-04-08T09:13:18.715Z,29.70
2023-04-08T09:16:09.120Z,34.23
2023-04-08T09:18:55.868Z,28.77
2023-04-08T09:21:42.590Z,30.70
2023-04-08T09:24:30.741Z,34.17
2023-04-08T09:27:17.334Z,32.43
2023-04-08T09:30:23.185Z,31.40
2023-04-08T09:33:11.696Z,32.43
2023-04-08T09:35:58.425Z,31.73
2023-04-08T09:38:45.558Z,34.50
2023-04-08T09:41:35.611Z,33.73
2023-04-08T09:44:27.641Z,35.40
2023-04-08T09:47:20.687Z,32.33
2023-04-08T09:50:10.674Z,32.47
2023-04-08T09:53:02.954Z,28.90
2023-04-08T09:55:54.093Z,31.90
2023-04-08T09:58:43.594Z,35.43
2023-04-08T10:01:38.621Z,32.87
2023-04-08T10:04:29.375Z,32.93
2023-04-08T10:07:17.503Z,29.10
2023-04-08T10:10:04.854Z,28.90
2023-04-08T10:12:52.190Z,29.00
2023-04-08T10:15:40.884Z,26.63
2023-04-08T10:18:34.410Z,27.40
2023-04-08T10:21:39.558Z,26.17
2023-04-08T10:24:27.487Z,23.60
2023-04-08T10:27:41.851Z,33.33
2023-04-08T10:30:42.030Z,31.87
2023-04-08T10:33:39.179Z,31.10
2023-04-08T10:36:28.040Z,27.97
2023-04-08T10:39:15.840Z,27.60
2023-04-08T10:42:04.406Z,29.27
2023-04-08T10:44:51.371Z,29.33
2023-04-08T10:47:37.908Z,27.60
2023-04-08T10:50:24.790Z,25.97
2023-04-08T10:53:12.284Z,26.70
2023-04-08T10:56:06.201Z,28.23
2023-04-08T10:58:56.140Z,25.37
2023-04-08T11:01:44.977Z,24.43
2023-04-08T11:04:31.952Z,25.73
2023-04-08T11:07:21.683Z,26.03
2023-04-08T11:10:09.406Z,23.60
2023-04-08T11:12:56.716Z,28.37
2023-04-08T11:15:44.581Z,24.10
2023-04-08T11:18:32.243Z,24.97
2023-04-08T11:21:18.857Z,21.87
2023-04-08T11:24:11.915Z,23.50
2023-04-08T11:26:59.372Z,26.10
2023-04-08T11:29:46.186Z,22.43
2023-04-08T11:32:35.250Z,24.07
2023-04-08T11:35:21.846Z,27.83
2023-04-08T11:38:09.649Z,26.10
2023-04-08T11:40:56.598Z,24.97
2023-04-08T11:43:53.150Z,21.00
2023-04-08T11:46:40.933Z,24.07
2023-04-08T11:49:29.592Z,22.67
2023-04-08T11:52:16.254Z,20.90
2023-04-08T11:55:02.651Z,21.17
2023-04-08T11:57:49.159Z,22.37
2023-04-08T12:00:35.573Z,23.90
2023-04-08T12:03:22.056Z,20.60
2023-04-08T12:06:10.222Z,18.27
2023-04-08T12:08:57.653Z,19.00
2023-04-08T12:11:44.352Z,20.50
2023-04-08T12:14:30.972Z,24.03
2023-04-08T12:17:17.554Z,24.37
2023-04-08T12:20:04.299Z,24.17
2023-04-08T12:22:52.245Z,22.23
2023-04-08T12:25:38.598Z,19.73
2023-04-08T12:28:25.042Z,20.43
2023-04-08T12:31:11.561Z,21.70
2023-04-08T12:33:57.810Z,19.40
2023-04-08T12:36:44.790Z,20.00
2023-04-08T12:39:32.833Z,17.10
2023-04-08T12:42:19.196Z,18.07
2023-04-08T12:45:08.250Z,21.83
2023-04-08T12:47:55.119Z,20.90
2023-04-08T12:50:41.516Z,22.50
2023-04-08T12:53:27.807Z,20.17
2023-04-08T12:56:15.735Z,24.53
2023-04-08T12:59:02.559Z,21.03
2023-04-08T13:01:49.184Z,23.90
2023-04-08T13:04:35.627Z,22.80
2023-04-08T13:07:22.042Z,21.90
2023-04-08T13:10:09.915Z,27.93
2023-04-08T13:12:58.318Z,23.10
2023-04-08T13:15:44.765Z,22.60
2023-04-08T13:18:31.177Z,22.87
2023-04-08T13:21:20.117Z,21.37
2023-04-08T13:24:07.211Z,19.93
2023-04-08T13:26:53.903Z,20.80
2023-04-08T13:29:41.585Z,21.10
2023-04-08T13:32:28.106Z,20.70
2023-04-08T13:35:14.547Z,20.53
2023-04-08T13:38:01.148Z,19.87
2023-04-08T13:40:49.182Z,22.17
2023-04-08T13:43:35.978Z,28.37
2023-04-08T13:46:23.716Z,26.17
2023-04-08T13:49:10.966Z,28.37
2023-04-08T13:51:57.561Z,22.83
2023-04-08T13:54:44.023Z,27.33
2023-04-08T13:57:30.630Z,24.63
2023-04-08T14:00:17.406Z,26.37
2023-04-08T14:03:05.218Z,25.27
2023-04-08T14:05:52.345Z,23.17
2023-04-08T14:08:38.798Z,26.97
2023-04-08T14:11:26.074Z,27.10
2023-04-08T14:14:15.680Z,25.37
2023-04-08T14:17:02.573Z,27.17
2023-04-08T14:19:51.022Z,29.00
2023-04-08T14:22:37.720Z,26.67
2023-04-08T14:25:24.067Z,24.40
2023-04-08T14:28:10.523Z,27.23
2023-04-08T14:30:57.086Z,36.73
2023-04-08T14:33:43.915Z,24.77
2023-04-08T14:36:32.854Z,29.67
2023-04-08T14:39:19.796Z,26.77
2023-04-08T14:42:06.134Z,29.50
2023-04-08T14:44:52.523Z,26.07
2023-04-08T14:47:39.013Z,31.10
2023-04-08T14:50:25.792Z,28.93
2023-04-08T14:53:13.324Z,25.70
2023-04-08T14:55:59.724Z,28.27
2023-04-08T14:58:46.054Z,27.93
2023-04-08T15:01:33.603Z,25.93
2023-04-08T15:04:20.482Z,26.33
2023-04-08T15:07:07.521Z,24.77
2023-04-08T15:09:56.400Z,29.60
2023-04-08T15:12:42.781Z,24.90
2023-04-08T15:15:29.322Z,30.63
2023-04-08T15:18:15.923Z,25.30
2023-04-08T15:21:02.471Z,27.50
2023-04-08T15:23:48.890Z,21.83
2023-04-08T15:26:36.617Z,21.17
2023-04-08T15:29:24.590Z,18.13
2023-04-08T15:32:10.905Z,15.20
2023-04-08T15:34:57.298Z,16.97
2023-04-08T15:37:43.683Z,16.67
2023-04-08T15:40:32.159Z,18.30
2023-04-08T15:43:19.852Z,17.77
2023-04-08T15:46:06.484Z,18.70
2023-04-08T15:48:53.194Z,18.13
2023-04-08T15:51:44.252Z,15.57
2023-04-08T15:54:31.944Z,15.60
2023-04-08T15:57:18.261Z,17.13
2023-04-08T16:00:10.430Z,17.70
2023-04-08T16:02:57.060Z,18.23
2023-04-08T16:05:43.717Z,15.50
2023-04-08T16:08:30.567Z,15.97
2023-04-08T16:11:17.719Z,17.90
2023-04-08T16:14:05.042Z,16.17
2023-04-08T16:16:52.701Z,17.40
2023-04-08T16:19:39.377Z,17.30
2023-04-08T16:22:26.359Z,16.57
2023-04-08T16:25:12.740Z,16.77
2023-04-08T16:27:59.281Z,19.73
2023-04-08T16:30:47.747Z,15.47
2023-04-08T16:33:36.574Z,17.77
2023-04-08T16:36:22.979Z,19.37
2023-04-08T16:39:09.493Z,17.17
2023-04-08T16:41:58.666Z,18.23
2023-04-08T16:44:45.491Z,20.77
2023-04-08T16:47:32.323Z,17.57
2023-04-08T16:50:20.608Z,17.73
2023-04-08T16:53:07.291Z,16.70
2023-04-08T16:55:54.190Z,18.07
2023-04-08T16:58:40.939Z,18.17
2023-04-08T17:01:27.719Z,18.90
2023-04-08T17:04:14.331Z,20.07
2023-04-08T17:07:03.298Z,20.07
2023-04-08T17:09:52.330Z,26.30
2023-04-08T17:12:38.633Z,22.57
2023-04-08T17:15:25.662Z,28.47
2023-04-08T17:18:12.486Z,30.53
2023-04-08T17:20:59.049Z,25.80
2023-04-08T17:23:46.932Z,26.10
2023-04-08T17:26:33.876Z,24.87
2023-04-08T17:29:20.633Z,32.90
2023-04-08T17:32:07.589Z,30.10
2023-04-08T17:34:54.344Z,31.80
2023-04-08T17:37:40.897Z,31.03
2023-04-08T17:40:28.874Z,32.17
2023-04-08T17:43:15.609Z,29.43
2023-04-08T17:46:02.325Z,43.13
2023-04-08T17:48:49.154Z,32.47
2023-04-08T17:51:35.434Z,30.97
2023-04-08T17:54:21.990Z,29.47
2023-04-08T17:57:10.025Z,24.60
2023-04-08T17:59:56.575Z,22.63
2023-04-08T18:02:43.346Z,28.67
2023-04-08T18:05:30.740Z,29.20
2023-04-08T18:08:17.150Z,27.50
2023-04-08T18:11:06.231Z,25.53
2023-04-08T18:13:54.507Z,28.17
2023-04-08T18:16:41.294Z,30.13
2023-04-08T18:19:27.968Z,24.90
2023-04-08T18:22:14.640Z,22.40
2023-04-08T18:25:01.021Z,25.57
2023-04-08T18:27:47.271Z,22.93
2023-04-08T18:30:35.302Z,23.53
2023-04-08T18:33:21.955Z,21.93
2023-04-08T18:36:09.968Z,21.37
2023-04-08T18:38:57.175Z,22.50
2023-04-08T18:41:43.999Z,20.73
2023-04-08T18:44:30.509Z,23.20
2023-04-08T18:47:18.766Z,22.70
2023-04-08T18:50:06.502Z,21.93
2023-04-08T18:52:52.988Z,22.57
2023-04-08T18:55:39.625Z,20.73
2023-04-08T18:58:27.391Z,22.10
2023-04-08T19:01:16.230Z,22.40
2023-04-08T19:04:04.105Z,21.37
2023-04-08T19:06:51.462Z,20.70
2023-04-08T19:09:38.126Z,21.73
2023-04-08T19:12:24.671Z,22.50
2023-04-08T19:15:11.621Z,24.97
2023-04-08T19:17:59.118Z,23.03
2023-04-08T19:20:47.497Z,22.23
2023-04-08T19:23:34.022Z,25.13
2023-04-08T19:26:20.529Z,23.43
2023-04-08T19:29:11.822Z,25.40
2023-04-08T19:31:59.291Z,22.30
2023-04-08T19:34:45.797Z,25.50
2023-04-08T19:37:33.970Z,24.03
2023-04-08T19:40:20.780Z,25.97
2023-04-08T19:43:07.323Z,24.47
2023-04-08T19:45:54.619Z,22.47
2023-04-08T19:48:41.121Z,25.20
2023-04-08T19:51:31.038Z,24.93
2023-04-08T19:54:19.151Z,24.17
2023-04-08T19:57:08.780Z,22.23
2023-04-08T19:59:55.972Z,25.57
2023-04-08T20:02:42.733Z,30.77
2023-04-08T20:05:29.411Z,25.60
2023-04-08T20:08:15.828Z,27.70
2023-04-08T20:11:04.785Z,32.57
2023-04-08T20:13:51.716Z,31.20
2023-04-08T20:16:38.370Z,31.70
2023-04-08T20:19:25.009Z,34.20
2023-04-08T20:22:11.568Z,36.90
2023-04-08T20:25:01.285Z,30.03
2023-04-08T20:27:49.271Z,28.97
2023-04-08T20:30:35.830Z,29.13
2023-04-08T20:33:22.108Z,33.43
2023-04-08T20:36:08.594Z,33.77
2023-04-08T20:38:57.015Z,36.83
2023-04-08T20:41:44.401Z,36.57
2023-04-08T20:44:32.231Z,34.20
2023-04-08T20:47:18.541Z,33.43
2023-04-08T20:50:07.358Z,34.00
2023-04-08T20:52:54.025Z,30.07
2023-04-08T20:55:40.499Z,34.97
2023-04-08T20:58:27.060Z,30.33
2023-04-08T21:01:14.817Z,39.43
2023-04-08T21:04:02.946Z,37.47
2023-04-08T21:06:49.904Z,34.90
2023-04-08T21:09:36.817Z,32.13
2023-04-08T21:12:23.316Z,40.17
2023-04-08T21:15:10.705Z,35.17
2023-04-08T21:17:58.706Z,34.20
2023-04-08T21:20:45.323Z,43.07
2023-04-08T21:23:31.673Z,41.23
2023-04-08T21:26:18.214Z,34.90
2023-04-08T21:29:04.566Z,36.27
2023-04-08T21:31:51.169Z,39.57
2023-04-08T21:34:38.807Z,42.30
2023-04-08T21:37:25.140Z,32.43
2023-04-08T21:40:14.737Z,34.43
2023-04-08T21:43:01.256Z,35.07
2023-04-08T21:45:47.742Z,29.67
2023-04-08T21:48:34.182Z,35.23
2023-04-08T21:51:24.451Z,32.40
2023-04-08T21:54:13.554Z,32.87
2023-04-08T21:57:01.332Z,35.83
2023-04-08T21:59:47.903Z,30.67
2023-04-08T22:02:40.655Z,32.23
2023-04-08T22:05:27.560Z,31.33
2023-04-08T22:08:16.166Z,31.10
2023-04-08T22:11:03.000Z,31.07
2023-04-08T22:13:49.629Z,32.77
2023-04-08T22:16:36.653Z,29.97
2023-04-08T22:19:23.651Z,29.93
2023-04-08T22:22:10.295Z,33.00
2023-04-08T22:24:58.115Z,31.83
2023-04-08T22:27:44.745Z,31.90
2023-04-08T22:30:31.685Z,32.77
2023-04-08T22:33:18.406Z,32.50
2023-04-08T22:36:05.806Z,32.93
2023-04-08T22:38:52.385Z,33.63
2023-04-08T22:41:40.599Z,33.03
2023-04-08T22:44:27.348Z,36.67
2023-04-08T22:47:13.628Z,34.77
2023-04-08T22:50:00.050Z,34.93
2023-04-08T22:52:46.767Z,30.33
2023-04-08T22:55:33.452Z,33.50
2023-04-08T22:58:21.105Z,32.83
2023-04-08T23:01:12.643Z,33.43
2023-04-08T23:03:59.038Z,37.27
2023-04-08T23:06:45.482Z,31.57
2023-04-08T23:09:32.464Z,30.93
2023-04-08T23:12:18.827Z,33.43
2023-04-08T23:15:07.757Z,32.77
2023-04-08T23:17:54.192Z,39.60
2023-04-08T23:20:40.748Z,33.37
2023-04-08T23:23:27.166Z,35.57
2023-04-08T23:26:18.305Z,29.57
2023-04-08T23:29:04.786Z,33.30
2023-04-08T23:31:52.596Z,34.67
2023-04-08T23:34:38.902Z,34.73
2023-04-08T23:37:25.910Z,31.80
2023-04-08T23:40:12.924Z,33.07
2023-04-08T23:42:59.401Z,32.33
2023-04-08T23:45:45.814Z,32.17
2023-04-08T23:48:33.660Z,31.03
2023-04-08T23:51:20.603Z,38.23
2023-04-08T23:54:07.042Z,31.70
2023-04-08T23:56:53.545Z,35.30
2023-04-08T23:59:40.961Z,34.47
